Time,TemperatureF,DewpointF,PressureIn,WindDirection,WindDirectionDegrees,WindSpeedMPH,WindSpeedGustMPH,Humidity,HourlyPrecipIn,Conditions,Clouds,dailyrainin,SoftwareType,DateUTC
2013-02-08 00:00:00,21.0,-99.9,-100.00,NE,47,6.0,15.0,-999,-99.99,,,-99.99,,2013-02-08 07:00:00,
2013-02-08 00:32:00,21.0,-99.9,-100.00,NE,47,6.0,15.0,-999,-99.99,,,-99.99,,2013-02-08 07:32:00,
2013-02-08 00:42:00,21.0,-99.9,-100.00,NE,47,6.0,15.0,-999,-99.99,,,-99.99,,2013-02-08 07:42:00,
2013-02-08 00:52:00,21.0,-99.9,-100.00,NE,47,6.0,15.0,-999,-99.99,,,-99.99,,2013-02-08 07:52:00,
2013-02-08 01:00:00,22.0,-99.9,-100.00,ENE,62,7.0,20.0,-999,-99.99,,,-99.99,,2013-02-08 08:00:00,
2013-02-08 01:32:00,22.0,-99.9,-100.00,ENE,62,7.0,20.0,-999,-99.99,,,-99.99,,2013-02-08 08:32:00,
2013-02-08 01:42:00,22.0,-99.9,-100.00,ENE,62,7.0,20.0,-999,-99.99,,,-99.99,,2013-02-08 08:42:00,
2013-02-08 01:52:00,22.0,-99.9,-100.00,ENE,62,7.0,20.0,-999,-99.99,,,-99.99,,2013-02-08 08:52:00,
2013-02-08 03:00:00,21.0,-99.9,-100.00,SSE,149,7.0,20.0,-999,-99.99,,,-99.99,,2013-02-08 10:00:00,
2013-02-08 03:32:00,21.0,-99.9,-100.00,SSE,149,7.0,20.0,-999,-99.99,,,-99.99,,2013-02-08 10:32:00,
2013-02-08 03:42:00,21.0,-99.9,-100.00,SSE,149,7.0,20.0,-999,-99.99,,,-99.99,,2013-02-08 10:42:00,
2013-02-08 03:52:00,21.0,-99.9,-100.00,SSE,149,7.0,20.0,-999,-99.99,,,-99.99,,2013-02-08 10:52:00,
2013-02-08 05:00:00,19.0,-99.9,-100.00,SSE,147,11.0,23.0,-999,-99.99,,,-99.99,,2013-02-08 12:00:00,
2013-02-08 05:33:00,19.0,-99.9,-100.00,SSE,147,11.0,23.0,-999,-99.99,,,-99.99,,2013-02-08 12:33:00,
2013-02-08 05:42:00,19.0,-99.9,-100.00,SSE,147,11.0,23.0,-999,-99.99,,,-99.99,,2013-02-08 12:42:00,
2013-02-08 05:53:00,19.0,-99.9,-100.00,SSE,147,11.0,23.0,-999,-99.99,,,-99.99,,2013-02-08 12:53:00,
2013-02-08 06:00:00,20.0,-99.9,-100.00,SE,146,16.0,26.0,-999,-99.99,,,-99.99,,2013-02-08 13:00:00,
2013-02-08 06:33:00,20.0,-99.9,-100.00,SE,146,16.0,26.0,-999,-99.99,,,-99.99,,2013-02-08 13:33:00,
2013-02-08 06:43:00,20.0,-99.9,-100.00,SE,146,16.0,26.0,-999,-99.99,,,-99.99,,2013-02-08 13:43:00,
2013-02-08 06:52:00,20.0,-99.9,-100.00,SE,146,16.0,26.0,-999,-99.99,,,-99.99,,2013-02-08 13:52:00,
2013-02-08 07:00:00,18.0,-99.9,-100.00,SE,144,14.0,23.0,-999,-99.99,,,-99.99,,2013-02-08 14:00:00,
2013-02-08 07:33:00,18.0,-99.9,-100.00,SE,144,14.0,23.0,-999,-99.99,,,-99.99,,2013-02-08 14:33:00,
2013-02-08 07:42:00,18.0,-99.9,-100.00,SE,144,14.0,23.0,-999,-99.99,,,-99.99,,2013-02-08 14:42:00,
2013-02-08 07:53:00,18.0,-99.9,-100.00,SE,144,14.0,23.0,-999,-99.99,,,-99.99,,2013-02-08 14:53:00,
2013-02-08 08:00:00,17.0,-99.9,-100.00,SE,138,14.0,21.0,-999,-99.99,,,-99.99,,2013-02-08 15:00:00,
2013-02-08 08:32:00,17.0,-99.9,-100.00,SE,138,14.0,21.0,-999,-99.99,,,-99.99,,2013-02-08 15:32:00,
2013-02-08 08:42:00,17.0,-99.9,-100.00,SE,138,14.0,21.0,-999,-99.99,,,-99.99,,2013-02-08 15:42:00,
2013-02-08 08:52:00,17.0,-99.9,-100.00,SE,138,14.0,21.0,-999,-99.99,,,-99.99,,2013-02-08 15:52:00,
2013-02-08 09:00:00,17.0,-99.9,-100.00,SE,142,14.0,24.0,-999,-99.99,,,-99.99,,2013-02-08 16:00:00,
2013-02-08 09:33:00,17.0,-99.9,-100.00,SE,142,14.0,24.0,-999,-99.99,,,-99.99,,2013-02-08 16:33:00,
2013-02-08 09:42:00,17.0,-99.9,-100.00,SE,142,14.0,24.0,-999,-99.99,,,-99.99,,2013-02-08 16:42:00,
2013-02-08 09:52:00,17.0,-99.9,-100.00,SE,142,14.0,24.0,-999,-99.99,,,-99.99,,2013-02-08 16:52:00,
2013-02-08 10:00:00,18.0,-99.9,-100.00,SE,144,13.0,24.0,-999,-99.99,,,-99.99,,2013-02-08 17:00:00,
2013-02-08 10:33:00,18.0,-99.9,-100.00,SE,144,13.0,24.0,-999,-99.99,,,-99.99,,2013-02-08 17:33:00,
2013-02-08 10:42:00,18.0,-99.9,-100.00,SE,144,13.0,24.0,-999,-99.99,,,-99.99,,2013-02-08 17:42:00,
2013-02-08 10:53:00,18.0,-99.9,-100.00,SE,144,13.0,24.0,-999,-99.99,,,-99.99,,2013-02-08 17:53:00,
2013-02-08 11:00:00,18.0,-99.9,-100.00,SE,140,14.0,27.0,-999,-99.99,,,-99.99,,2013-02-08 18:00:00,
2013-02-08 11:36:00,18.0,-99.9,-100.00,SE,140,14.0,27.0,-999,-99.99,,,-99.99,,2013-02-08 18:36:00,
2013-02-08 11:44:00,18.0,-99.9,-100.00,SE,140,14.0,27.0,-999,-99.99,,,-99.99,,2013-02-08 18:44:00,
2013-02-08 11:53:00,18.0,-99.9,-100.00,SE,140,14.0,27.0,-999,-99.99,,,-99.99,,2013-02-08 18:53:00,
2013-02-08 12:00:00,19.0,-99.9,-100.00,SE,139,12.0,21.0,-999,-99.99,,,-99.99,,2013-02-08 19:00:00,
2013-02-08 12:33:00,19.0,-99.9,-100.00,SE,139,12.0,21.0,-999,-99.99,,,-99.99,,2013-02-08 19:33:00,
2013-02-08 12:42:00,19.0,-99.9,-100.00,SE,139,12.0,21.0,-999,-99.99,,,-99.99,,2013-02-08 19:42:00,
2013-02-08 12:53:00,19.0,-99.9,-100.00,SE,139,12.0,21.0,-999,-99.99,,,-99.99,,2013-02-08 19:53:00,
2013-02-08 13:00:00,20.0,-99.9,-100.00,SE,142,10.0,19.0,-999,-99.99,,,-99.99,,2013-02-08 20:00:00,
2013-02-08 13:32:00,20.0,-99.9,-100.00,SE,142,10.0,19.0,-999,-99.99,,,-99.99,,2013-02-08 20:32:00,
2013-02-08 13:42:00,20.0,-99.9,-100.00,SE,142,10.0,19.0,-999,-99.99,,,-99.99,,2013-02-08 20:42:00,
2013-02-08 13:53:00,20.0,-99.9,-100.00,SE,142,10.0,19.0,-999,-99.99,,,-99.99,,2013-02-08 20:53:00,
2013-02-08 14:00:00,20.0,-99.9,-100.00,SE,136,11.0,26.0,-999,-99.99,,,-99.99,,2013-02-08 21:00:00,
2013-02-08 14:33:00,20.0,-99.9,-100.00,SE,136,11.0,26.0,-999,-99.99,,,-99.99,,2013-02-08 21:33:00,
2013-02-08 14:42:00,20.0,-99.9,-100.00,SE,136,11.0,26.0,-999,-99.99,,,-99.99,,2013-02-08 21:42:00,
2013-02-08 14:52:00,20.0,-99.9,-100.00,SE,136,11.0,26.0,-999,-99.99,,,-99.99,,2013-02-08 21:52:00,
2013-02-08 15:00:00,18.0,-99.9,-100.00,SSW,211,8.0,21.0,-999,-99.99,,,-99.99,,2013-02-08 22:00:00,
2013-02-08 15:32:00,18.0,-99.9,-100.00,SSW,211,8.0,21.0,-999,-99.99,,,-99.99,,2013-02-08 22:32:00,
2013-02-08 15:42:00,18.0,-99.9,-100.00,SSW,211,8.0,21.0,-999,-99.99,,,-99.99,,2013-02-08 22:42:00,
2013-02-08 15:52:00,18.0,-99.9,-100.00,SSW,211,8.0,21.0,-999,-99.99,,,-99.99,,2013-02-08 22:52:00,
2013-02-08 16:00:00,16.0,-99.9,-100.00,SW,219,6.0,21.0,-999,-99.99,,,-99.99,,2013-02-08 23:00:00,
2013-02-08 16:32:00,16.0,-99.9,-100.00,SW,219,6.0,21.0,-999,-99.99,,,-99.99,,2013-02-08 23:32:00,
2013-02-08 16:42:00,16.0,-99.9,-100.00,SW,219,6.0,21.0,-999,-99.99,,,-99.99,,2013-02-08 23:42:00,
2013-02-08 16:52:00,16.0,-99.9,-100.00,SW,219,6.0,21.0,-999,-99.99,,,-99.99,,2013-02-08 23:52:00,
2013-02-08 17:00:00,14.0,-99.9,-100.00,South,191,5.0,19.0,-999,-99.99,,,-99.99,,2013-02-09 00:00:00,
2013-02-08 17:32:00,14.0,-99.9,-100.00,South,191,5.0,19.0,-999,-99.99,,,-99.99,,2013-02-09 00:32:00,
2013-02-08 17:42:00,14.0,-99.9,-100.00,South,191,5.0,19.0,-999,-99.99,,,-99.99,,2013-02-09 00:42:00,
2013-02-08 17:52:00,14.0,-99.9,-100.00,South,191,5.0,19.0,-999,-99.99,,,-99.99,,2013-02-09 00:52:00,
2013-02-08 18:00:00,14.0,-99.9,-100.00,SW,231,11.0,21.0,-999,-99.99,,,-99.99,,2013-02-09 01:00:00,
2013-02-08 18:32:00,14.0,-99.9,-100.00,SW,231,11.0,21.0,-999,-99.99,,,-99.99,,2013-02-09 01:32:00,
2013-02-08 18:42:00,14.0,-99.9,-100.00,SW,231,11.0,21.0,-999,-99.99,,,-99.99,,2013-02-09 01:42:00,
2013-02-08 18:52:00,14.0,-99.9,-100.00,SW,231,11.0,21.0,-999,-99.99,,,-99.99,,2013-02-09 01:52:00,
2013-02-08 19:00:00,13.0,-99.9,-100.00,SW,221,12.0,26.0,-999,-99.99,,,-99.99,,2013-02-09 02:00:00,
2013-02-08 19:32:00,13.0,-99.9,-100.00,SW,221,12.0,26.0,-999,-99.99,,,-99.99,,2013-02-09 02:32:00,
2013-02-08 19:42:00,13.0,-99.9,-100.00,SW,221,12.0,26.0,-999,-99.99,,,-99.99,,2013-02-09 02:42:00,
2013-02-08 19:53:00,13.0,-99.9,-100.00,SW,221,12.0,26.0,-999,-99.99,,,-99.99,,2013-02-09 02:53:00,
2013-02-08 20:00:00,13.0,-99.9,-100.00,SW,231,9.0,22.0,-999,-99.99,,,-99.99,,2013-02-09 03:00:00,
2013-02-08 20:32:00,13.0,-99.9,-100.00,SW,231,9.0,22.0,-999,-99.99,,,-99.99,,2013-02-09 03:32:00,
2013-02-08 20:42:00,13.0,-99.9,-100.00,SW,231,9.0,22.0,-999,-99.99,,,-99.99,,2013-02-09 03:42:00,
2013-02-08 20:53:00,13.0,-99.9,-100.00,SW,231,9.0,22.0,-999,-99.99,,,-99.99,,2013-02-09 03:53:00,
2013-02-08 21:00:00,13.0,-99.9,-100.00,SW,229,10.0,16.0,-999,-99.99,,,-99.99,,2013-02-09 04:00:00,
2013-02-08 21:33:00,13.0,-99.9,-100.00,SW,229,10.0,16.0,-999,-99.99,,,-99.99,,2013-02-09 04:33:00,
2013-02-08 21:43:00,13.0,-99.9,-100.00,SW,229,10.0,16.0,-999,-99.99,,,-99.99,,2013-02-09 04:43:00,
2013-02-08 21:53:00,13.0,-99.9,-100.00,SW,229,10.0,16.0,-999,-99.99,,,-99.99,,2013-02-09 04:53:00,
2013-02-08 22:00:00,13.0,-99.9,-100.00,SW,227,9.0,14.0,-999,-99.99,,,-99.99,,2013-02-09 05:00:00,
2013-02-08 22:32:00,13.0,-99.9,-100.00,SW,227,9.0,14.0,-999,-99.99,,,-99.99,,2013-02-09 05:32:00,
2013-02-08 22:42:00,13.0,-99.9,-100.00,SW,227,9.0,14.0,-999,-99.99,,,-99.99,,2013-02-09 05:42:00,
2013-02-08 22:52:00,13.0,-99.9,-100.00,SW,227,9.0,14.0,-999,-99.99,,,-99.99,,2013-02-09 05:52:00,
2013-02-08 23:00:00,12.0,-99.9,-100.00,WSW,238,6.0,9.0,-999,-99.99,,,-99.99,,2013-02-09 06:00:00,
2013-02-08 23:32:00,12.0,-99.9,-100.00,WSW,238,6.0,9.0,-999,-99.99,,,-99.99,,2013-02-09 06:32:00,
2013-02-08 23:42:00,12.0,-99.9,-100.00,WSW,238,6.0,9.0,-999,-99.99,,,-99.99,,2013-02-09 06:42:00,
2013-02-08 23:52:00,12.0,-99.9,-100.00,WSW,238,6.0,9.0,-999,-99.99,,,-99.99,,2013-02-09 06:52:00,